createdAt,value
2018-12-13T00:00:10.265Z,2.40
2018-12-13T00:02:38.648Z,2.40
2018-12-13T00:05:07.139Z,2.40
2018-12-13T00:07:35.505Z,2.40
2018-12-13T00:10:04.168Z,2.40
2018-12-13T00:12:32.536Z,2.40
2018-12-13T00:15:00.963Z,2.40
2018-12-13T00:17:29.336Z,2.30
2018-12-13T00:19:57.727Z,2.30
2018-12-13T00:22:26.100Z,2.30
2018-12-13T00:24:54.810Z,2.20
2018-12-13T00:27:23.162Z,2.30
2018-12-13T00:29:51.581Z,2.20
2018-12-13T00:32:19.977Z,2.20
2018-12-13T00:34:48.351Z,2.20
2018-12-13T00:37:16.854Z,2.10
2018-12-13T00:39:45.267Z,2.10
2018-12-13T00:42:13.663Z,2.20
2018-12-13T00:44:42.062Z,2.10
2018-12-13T00:47:10.422Z,2.10
2018-12-13T00:49:38.783Z,2.10
2018-12-13T00:52:07.156Z,2.20
2018-12-13T00:54:35.555Z,2.20
2018-12-13T00:57:04.124Z,2.20
2018-12-13T00:59:32.509Z,2.20
2018-12-13T01:02:00.874Z,2.20
2018-12-13T01:04:29.272Z,2.10
2018-12-13T01:06:57.627Z,2.10
2018-12-13T01:09:26.028Z,2.10
2018-12-13T01:11:54.402Z,2.00
2018-12-13T01:14:22.812Z,2.00
2018-12-13T01:16:51.206Z,1.90
2018-12-13T01:19:19.600Z,2.00
2018-12-13T01:21:48.000Z,1.90
2018-12-13T01:24:16.439Z,1.80
2018-12-13T01:26:44.821Z,1.80
2018-12-13T01:29:13.236Z,1.90
2018-12-13T01:31:41.592Z,1.90
2018-12-13T01:34:10.007Z,1.90
2018-12-13T01:36:38.387Z,1.90
2018-12-13T01:39:07.898Z,1.80
2018-12-13T01:41:36.304Z,1.90
2018-12-13T01:44:04.677Z,1.90
2018-12-13T01:46:33.338Z,1.90
2018-12-13T01:49:01.707Z,1.90
2018-12-13T01:51:30.098Z,1.90
2018-12-13T01:53:58.492Z,1.80
2018-12-13T01:56:26.896Z,1.80
2018-12-13T01:58:55.256Z,1.70
2018-12-13T02:01:23.632Z,1.80
2018-12-13T02:03:52.012Z,1.70
2018-12-13T02:06:20.419Z,1.70
2018-12-13T02:08:48.783Z,1.70
2018-12-13T02:11:17.229Z,1.60
2018-12-13T02:13:45.620Z,1.50
2018-12-13T02:16:14.064Z,1.70
2018-12-13T02:18:42.416Z,1.70
2018-12-13T02:21:10.826Z,1.60
2018-12-13T02:23:39.187Z,1.70
2018-12-13T02:26:07.828Z,1.70
2018-12-13T02:28:36.712Z,1.70
2018-12-13T02:31:05.161Z,1.70
2018-12-13T02:33:33.649Z,1.60
2018-12-13T02:36:02.148Z,1.60
2018-12-13T02:38:30.526Z,1.60
2018-12-13T02:40:58.884Z,1.60
2018-12-13T02:43:27.220Z,1.60
2018-12-13T02:45:55.572Z,1.70
2018-12-13T02:48:23.928Z,1.70
2018-12-13T02:50:52.392Z,1.70
2018-12-13T02:53:20.752Z,1.70
2018-12-13T02:55:49.171Z,1.70
2018-12-13T02:58:18.222Z,1.70
2018-12-13T03:00:46.553Z,1.60
2018-12-13T03:03:15.123Z,1.60
2018-12-13T03:05:43.461Z,1.70
2018-12-13T03:08:11.948Z,1.70
2018-12-13T03:10:40.276Z,1.60
2018-12-13T03:13:08.727Z,1.60
2018-12-13T03:15:37.211Z,1.60
2018-12-13T03:18:05.596Z,1.50
2018-12-13T03:20:33.933Z,1.40
2018-12-13T03:23:02.395Z,1.50
2018-12-13T03:25:30.778Z,1.40
2018-12-13T03:27:59.157Z,1.60
2018-12-13T03:30:27.495Z,1.50
2018-12-13T03:32:55.870Z,1.50
2018-12-13T03:35:24.218Z,1.50
2018-12-13T03:37:52.598Z,1.40
2018-12-13T03:40:20.964Z,1.30
2018-12-13T03:42:49.434Z,1.30
2018-12-13T03:45:17.781Z,1.30
2018-12-13T03:47:46.327Z,1.30
2018-12-13T03:50:14.646Z,1.30
2018-12-13T03:52:43.975Z,1.30
2018-12-13T03:55:12.533Z,1.30
2018-12-13T03:57:40.897Z,1.30
2018-12-13T04:00:09.369Z,1.20
2018-12-13T04:02:37.709Z,1.20
2018-12-13T04:05:06.277Z,1.20
2018-12-13T04:07:34.628Z,1.20
2018-12-13T04:10:02.961Z,1.20
2018-12-13T04:12:31.316Z,1.10
2018-12-13T04:14:59.688Z,1.10
2018-12-13T04:17:28.179Z,1.10
2018-12-13T04:19:56.539Z,1.00
2018-12-13T04:22:24.958Z,1.00
2018-12-13T04:24:53.316Z,1.00
2018-12-13T04:27:21.684Z,1.00
2018-12-13T04:29:50.000Z,1.00
2018-12-13T04:32:18.545Z,0.90
2018-12-13T04:34:46.980Z,0.90
2018-12-13T04:37:16.383Z,0.90
2018-12-13T04:39:44.815Z,0.90
2018-12-13T04:42:13.137Z,0.80
2018-12-13T04:44:41.591Z,1.00
2018-12-13T04:47:09.943Z,1.00
2018-12-13T04:49:38.285Z,0.90
2018-12-13T04:52:06.617Z,0.80
2018-12-13T04:54:34.983Z,0.80
2018-12-13T04:57:03.333Z,0.80
2018-12-13T04:59:31.696Z,0.80
2018-12-13T05:02:00.157Z,0.70
2018-12-13T05:04:28.544Z,0.90
2018-12-13T05:06:56.894Z,1.00
2018-12-13T05:09:25.289Z,1.00
2018-12-13T05:11:53.680Z,0.80
2018-12-13T05:14:22.062Z,0.80
2018-12-13T05:16:50.420Z,0.80
2018-12-13T05:19:19.199Z,0.70
2018-12-13T05:21:47.536Z,0.70
2018-12-13T05:24:16.039Z,0.70
2018-12-13T05:26:44.397Z,0.70
2018-12-13T05:29:12.767Z,0.80
2018-12-13T05:31:41.108Z,0.70
2018-12-13T05:34:09.496Z,0.60
2018-12-13T05:36:38.160Z,0.60
2018-12-13T05:39:07.650Z,0.50
2018-12-13T05:41:36.156Z,0.50
2018-12-13T05:44:04.781Z,0.40
2018-12-13T05:46:33.197Z,0.50
2018-12-13T05:49:01.595Z,0.40
2018-12-13T05:51:30.066Z,0.40
2018-12-13T05:53:58.392Z,0.50
2018-12-13T05:56:26.716Z,0.50
2018-12-13T05:58:55.461Z,0.60
2018-12-13T06:01:23.842Z,0.60
2018-12-13T06:03:52.176Z,0.60
2018-12-13T06:06:20.584Z,0.60
2018-12-13T06:08:49.052Z,0.60
2018-12-13T06:11:17.437Z,0.70
2018-12-13T06:13:45.786Z,0.60
2018-12-13T06:16:14.165Z,0.60
2018-12-13T06:18:42.565Z,0.60
2018-12-13T06:21:11.909Z,0.60
2018-12-13T06:23:41.077Z,0.60
2018-12-13T06:26:09.476Z,0.60
2018-12-13T06:28:41.062Z,0.60
2018-12-13T06:31:09.572Z,0.60
2018-12-13T06:33:37.992Z,0.60
2018-12-13T06:36:06.474Z,0.50
2018-12-13T06:38:34.837Z,0.50
2018-12-13T06:41:03.557Z,0.50
2018-12-13T06:43:31.935Z,0.50
2018-12-13T06:46:00.524Z,0.50
2018-12-13T06:48:29.042Z,0.60
2018-12-13T06:50:57.577Z,0.70
2018-12-13T06:53:26.050Z,0.70
2018-12-13T06:55:54.566Z,0.70
2018-12-13T06:58:22.977Z,0.80
2018-12-13T07:00:51.523Z,0.80
2018-12-13T07:03:19.917Z,0.80
2018-12-13T07:05:48.820Z,0.90
2018-12-13T07:08:18.076Z,0.90
2018-12-13T07:10:46.653Z,0.90
2018-12-13T07:13:15.161Z,0.90
2018-12-13T07:15:43.799Z,1.00
2018-12-13T07:18:12.334Z,1.00
2018-12-13T07:20:40.800Z,1.00
2018-12-13T07:23:09.209Z,1.00
2018-12-13T07:25:37.826Z,1.20
2018-12-13T07:28:06.281Z,1.20
2018-12-13T07:30:34.738Z,1.20
2018-12-13T07:33:03.312Z,1.30
2018-12-13T07:35:33.022Z,1.20
2018-12-13T07:38:02.713Z,1.30
2018-12-13T07:40:32.702Z,1.40
2018-12-13T07:43:01.645Z,1.50
2018-12-13T07:45:30.659Z,1.50
2018-12-13T07:47:59.350Z,1.60
2018-12-13T07:50:28.095Z,1.50
2018-12-13T07:52:56.593Z,1.50
2018-12-13T07:55:26.782Z,1.50
2018-12-13T07:57:57.691Z,1.50
2018-12-13T08:00:28.681Z,2.10
2018-12-13T08:02:58.968Z,1.40
2018-12-13T08:05:29.355Z,1.40
2018-12-13T08:07:59.837Z,1.40
2018-12-13T08:10:29.362Z,1.40
2018-12-13T08:12:57.925Z,1.50
2018-12-13T08:15:26.394Z,1.40
2018-12-13T08:17:56.362Z,1.50
2018-12-13T08:20:26.097Z,1.40
2018-12-13T08:22:55.243Z,1.50
2018-12-13T08:25:26.568Z,1.30
2018-12-13T08:27:56.920Z,1.40
2018-12-13T08:30:25.502Z,1.50
2018-12-13T08:32:53.958Z,1.50
2018-12-13T08:35:22.619Z,1.50
2018-12-13T08:37:51.614Z,1.50
2018-12-13T08:40:20.122Z,1.60
2018-12-13T08:42:49.525Z,1.60
2018-12-13T08:45:18.875Z,1.60
2018-12-13T08:47:47.577Z,1.60
2018-12-13T08:50:16.094Z,1.60
2018-12-13T08:52:44.506Z,1.70
2018-12-13T08:55:13.792Z,1.70
2018-12-13T08:57:42.241Z,1.80
2018-12-13T09:00:11.013Z,0.50
2018-12-13T09:02:39.430Z,1.80
2018-12-13T09:05:08.192Z,1.90
2018-12-13T09:07:36.587Z,1.90
2018-12-13T09:10:06.672Z,1.90
2018-12-13T09:12:35.405Z,2.00
2018-12-13T09:15:04.779Z,2.10
2018-12-13T09:17:34.433Z,2.00
2018-12-13T09:20:02.967Z,2.00
2018-12-13T09:22:31.513Z,2.10
2018-12-13T09:25:00.481Z,2.10
2018-12-13T09:27:29.819Z,2.20
2018-12-13T09:29:58.383Z,2.30
2018-12-13T09:32:27.039Z,2.40
2018-12-13T09:34:55.702Z,2.40
2018-12-13T09:37:24.277Z,2.50
2018-12-13T09:39:52.804Z,2.50
2018-12-13T09:42:23.035Z,2.60
2018-12-13T09:44:51.542Z,2.70
2018-12-13T09:47:20.132Z,2.80
2018-12-13T09:49:48.725Z,2.90
2018-12-13T09:52:17.735Z,3.00
2018-12-13T09:54:47.981Z,3.10
2018-12-13T09:57:16.398Z,3.20
2018-12-13T09:59:45.100Z,3.20
2018-12-13T10:02:13.559Z,3.30
2018-12-13T10:04:42.011Z,3.40
2018-12-13T10:07:10.613Z,3.60
2018-12-13T10:09:39.305Z,3.90
2018-12-13T10:12:07.807Z,4.10
2018-12-13T10:14:36.578Z,4.10
2018-12-13T10:17:05.057Z,4.10
2018-12-13T10:19:33.898Z,4.10
2018-12-13T10:22:02.432Z,4.30
2018-12-13T10:24:31.086Z,4.20
2018-12-13T10:26:59.601Z,3.40
2018-12-13T10:29:28.263Z,4.40
2018-12-13T10:31:56.759Z,4.30
2018-12-13T10:34:25.349Z,4.00
2018-12-13T10:36:54.592Z,4.20
2018-12-13T10:39:23.006Z,4.20
2018-12-13T10:41:51.480Z,3.80
2018-12-13T10:44:24.146Z,3.80
2018-12-13T10:46:54.173Z,3.80
2018-12-13T10:49:22.857Z,3.80
2018-12-13T10:51:51.341Z,3.90
2018-12-13T10:54:19.800Z,3.90
2018-12-13T10:56:48.272Z,3.90
2018-12-13T10:59:17.569Z,3.90
2018-12-13T11:01:50.221Z,3.60
2018-12-13T11:04:18.701Z,3.60
2018-12-13T11:06:47.130Z,3.40
2018-12-13T11:09:15.715Z,3.40
2018-12-13T11:11:44.204Z,3.50
2018-12-13T11:14:13.147Z,3.60
2018-12-13T11:16:41.605Z,3.50
2018-12-13T11:19:10.092Z,3.30
2018-12-13T11:21:38.518Z,3.30
2018-12-13T11:24:07.196Z,3.30
2018-12-13T11:26:36.922Z,3.20
2018-12-13T11:29:42.236Z,3.10
2018-12-13T11:32:11.651Z,3.00
2018-12-13T11:34:40.717Z,3.10
2018-12-13T11:37:09.531Z,3.10
2018-12-13T11:39:38.090Z,3.10
2018-12-13T11:42:06.537Z,3.00
2018-12-13T11:44:36.859Z,3.10
2018-12-13T11:49:47.521Z,3.20
2018-12-13T11:52:16.747Z,3.20
2018-12-13T11:54:45.546Z,3.20
2018-12-13T11:57:14.000Z,3.10
2018-12-13T11:59:42.598Z,3.10
2018-12-13T12:02:11.090Z,3.10
2018-12-13T12:04:40.260Z,3.10
2018-12-13T12:07:09.275Z,3.30
2018-12-13T12:09:37.695Z,3.20
2018-12-13T12:12:06.193Z,3.40
2018-12-13T12:14:37.150Z,3.60
2018-12-13T12:17:06.509Z,3.60
2018-12-13T12:19:35.843Z,3.70
2018-12-13T12:22:07.521Z,3.80
2018-12-13T12:24:36.107Z,3.90
2018-12-13T12:27:04.813Z,3.70
2018-12-13T12:29:33.678Z,3.50
2018-12-13T12:32:03.324Z,3.50
2018-12-13T12:34:31.917Z,3.60
2018-12-13T12:37:00.777Z,3.70
2018-12-13T12:39:30.011Z,3.90
2018-12-13T12:41:58.628Z,3.80
2018-12-13T12:44:33.614Z,3.90
2018-12-13T12:47:02.546Z,4.00
2018-12-13T12:49:32.378Z,4.00
2018-12-13T12:52:01.070Z,4.00
2018-12-13T12:54:30.257Z,3.90
2018-12-13T12:56:59.053Z,4.10
2018-12-13T12:59:27.711Z,4.00
2018-12-13T13:01:56.529Z,4.10
2018-12-13T13:04:25.625Z,4.00
2018-12-13T13:06:54.434Z,3.90
2018-12-13T13:09:25.217Z,3.70
2018-12-13T13:11:54.041Z,3.70
2018-12-13T13:14:22.686Z,3.70
2018-12-13T13:16:51.491Z,3.80
2018-12-13T13:19:20.083Z,3.80
2018-12-13T13:21:48.779Z,3.90
2018-12-13T13:24:17.602Z,4.10
2018-12-13T13:26:47.891Z,4.40
2018-12-13T13:29:16.622Z,4.50
2018-12-13T13:31:46.513Z,4.50
2018-12-13T13:34:15.205Z,4.50
2018-12-13T13:36:44.070Z,4.90
2018-12-13T13:39:12.990Z,4.70
2018-12-13T13:41:43.404Z,4.00
2018-12-13T13:44:12.267Z,3.80
2018-12-13T13:46:40.961Z,3.60
2018-12-13T13:49:09.381Z,3.40
2018-12-13T13:51:37.844Z,3.30
2018-12-13T13:54:06.257Z,3.40
2018-12-13T13:56:34.689Z,3.60
2018-12-13T13:59:03.171Z,3.50
2018-12-13T14:01:32.249Z,3.50
2018-12-13T14:04:00.631Z,3.50
2018-12-13T14:06:29.073Z,3.40
2018-12-13T14:08:58.531Z,3.40
2018-12-13T14:11:27.177Z,3.40
2018-12-13T14:13:57.390Z,3.30
2018-12-13T14:16:25.867Z,3.20
2018-12-13T14:18:54.407Z,3.30
2018-12-13T14:21:23.587Z,3.20
2018-12-13T14:23:52.036Z,3.20
2018-12-13T14:26:20.584Z,3.00
2018-12-13T14:28:49.805Z,3.00
2018-12-13T14:31:18.348Z,3.00
2018-12-13T14:33:46.792Z,3.00
2018-12-13T14:36:16.191Z,3.00
2018-12-13T14:38:45.020Z,2.80
2018-12-13T14:41:14.072Z,2.70
2018-12-13T14:43:42.680Z,2.70
2018-12-13T14:46:12.097Z,2.80
2018-12-13T14:48:40.502Z,2.70
2018-12-13T14:51:09.685Z,2.60
2018-12-13T14:53:38.098Z,2.60
2018-12-13T14:56:06.477Z,2.60
2018-12-13T14:58:34.899Z,2.70
2018-12-13T15:01:03.584Z,2.70
2018-12-13T15:03:32.731Z,2.50
2018-12-13T15:06:01.127Z,2.60
2018-12-13T15:08:29.688Z,2.60
2018-12-13T15:10:58.116Z,2.50
2018-12-13T15:13:26.614Z,2.50
2018-12-13T15:15:55.152Z,2.40
2018-12-13T15:18:23.673Z,2.40
2018-12-13T15:20:52.119Z,2.40
2018-12-13T15:23:27.242Z,2.40
2018-12-13T15:25:55.685Z,2.40
2018-12-13T15:28:24.295Z,2.40
2018-12-13T15:30:52.749Z,2.40
2018-12-13T15:33:21.808Z,2.50
2018-12-13T15:35:50.260Z,2.50
2018-12-13T15:38:19.348Z,2.50
2018-12-13T15:40:47.780Z,2.50
2018-12-13T15:43:16.280Z,2.60
2018-12-13T15:45:44.705Z,2.60
2018-12-13T15:48:13.561Z,2.70
2018-12-13T15:50:42.240Z,2.80
2018-12-13T15:53:10.755Z,2.80
2018-12-13T15:55:39.199Z,2.80
2018-12-13T15:58:08.140Z,2.80
2018-12-13T16:00:37.050Z,2.80
2018-12-13T16:03:05.552Z,2.80
2018-12-13T16:05:34.105Z,2.80
2018-12-13T16:08:02.477Z,2.90
2018-12-13T16:10:32.437Z,2.90
2018-12-13T16:13:00.824Z,2.80
2018-12-13T16:18:10.954Z,2.70
2018-12-13T16:20:39.389Z,2.80
2018-12-13T16:23:07.905Z,2.70
2018-12-13T16:25:36.742Z,2.70
2018-12-13T16:28:05.508Z,2.80
2018-12-13T16:30:34.038Z,2.90
2018-12-13T16:33:02.504Z,2.80
2018-12-13T16:35:30.931Z,2.80
2018-12-13T16:38:00.156Z,2.70
2018-12-13T16:40:28.668Z,2.70
2018-12-13T16:42:57.088Z,2.70
2018-12-13T16:45:25.454Z,2.80
2018-12-13T16:47:54.349Z,2.80
2018-12-13T16:50:22.709Z,2.80
2018-12-13T16:52:51.807Z,2.80
2018-12-13T16:55:20.932Z,2.80
2018-12-13T16:57:50.124Z,2.70
2018-12-13T17:00:19.165Z,2.80
2018-12-13T17:02:47.907Z,2.80
2018-12-13T17:05:16.489Z,2.70
2018-12-13T17:07:45.040Z,2.70
2018-12-13T17:10:16.807Z,2.80
2018-12-13T17:12:44.119Z,2.80
2018-12-13T17:15:12.565Z,2.80
2018-12-13T17:17:40.961Z,2.90
2018-12-13T17:20:09.374Z,2.70
2018-12-13T17:22:37.868Z,2.70
2018-12-13T17:25:06.774Z,2.70
2018-12-13T17:27:35.432Z,2.80
2018-12-13T17:30:04.352Z,2.80
2018-12-13T17:32:32.736Z,2.70
2018-12-13T17:35:01.132Z,2.70
2018-12-13T17:37:29.719Z,2.70
2018-12-13T17:39:58.581Z,2.70
2018-12-13T17:42:26.959Z,2.70
2018-12-13T17:44:55.345Z,2.80
2018-12-13T17:47:23.776Z,2.80
2018-12-13T17:49:52.193Z,2.80
2018-12-13T17:52:21.180Z,2.80
2018-12-13T17:54:49.705Z,2.80
2018-12-13T17:57:18.154Z,2.70
2018-12-13T17:59:46.606Z,2.70
2018-12-13T18:02:15.497Z,2.70
2018-12-13T18:04:43.883Z,2.70
2018-12-13T18:07:12.868Z,2.70
2018-12-13T18:09:41.262Z,2.80
2018-12-13T18:12:09.817Z,2.80
2018-12-13T18:14:38.402Z,2.80
2018-12-13T18:17:06.803Z,2.90
2018-12-13T18:19:36.267Z,2.90
2018-12-13T18:22:04.641Z,2.90
2018-12-13T18:24:33.153Z,2.90
2018-12-13T18:27:01.563Z,3.00
2018-12-13T18:29:30.109Z,3.10
2018-12-13T18:31:58.509Z,3.00
2018-12-13T18:34:26.969Z,3.00
2018-12-13T18:36:55.333Z,2.90
2018-12-13T18:39:23.905Z,3.00
2018-12-13T18:41:52.340Z,3.10
2018-12-13T18:44:20.724Z,2.90
2018-12-13T18:46:49.248Z,3.00
2018-12-13T18:49:17.632Z,3.10
2018-12-13T18:51:45.985Z,2.90
2018-12-13T18:54:14.379Z,3.00
2018-12-13T18:56:43.005Z,3.00
2018-12-13T18:59:12.420Z,3.00
2018-12-13T19:01:40.825Z,2.90
2018-12-13T19:04:09.149Z,2.90
2018-12-13T19:06:37.576Z,2.90
2018-12-13T19:09:07.553Z,2.90
2018-12-13T19:11:36.056Z,2.90
2018-12-13T19:14:04.785Z,3.00
2018-12-13T19:16:33.325Z,3.00
2018-12-13T19:19:02.801Z,2.90
2018-12-13T19:21:33.601Z,2.80
2018-12-13T19:24:03.685Z,2.90
2018-12-13T19:26:33.749Z,2.90
2018-12-13T19:29:03.286Z,3.00
2018-12-13T19:31:31.717Z,2.90
2018-12-13T19:34:00.073Z,3.00
2018-12-13T19:36:28.455Z,3.00
2018-12-13T19:38:56.794Z,3.00
2018-12-13T19:41:25.162Z,3.00
2018-12-13T19:43:53.561Z,3.00
2018-12-13T19:46:22.577Z,3.00
2018-12-13T19:48:51.080Z,3.00
2018-12-13T19:51:19.505Z,3.00
2018-12-13T19:53:47.933Z,3.00
2018-12-13T19:56:16.279Z,2.90
2018-12-13T19:58:44.697Z,3.00
2018-12-13T20:01:13.128Z,3.00
2018-12-13T20:03:41.501Z,3.00
2018-12-13T20:06:10.251Z,3.00
2018-12-13T20:08:38.740Z,2.90
2018-12-13T20:11:07.113Z,2.90
2018-12-13T20:13:35.542Z,2.90
2018-12-13T20:16:03.932Z,2.90
2018-12-13T20:18:32.300Z,2.90
2018-12-13T20:21:00.678Z,2.90
2018-12-13T20:23:29.069Z,2.90
2018-12-13T20:25:57.533Z,2.90
2018-12-13T20:28:25.893Z,2.90
2018-12-13T20:30:54.285Z,2.90
2018-12-13T20:33:23.170Z,3.00
2018-12-13T20:35:52.058Z,3.00
2018-12-13T20:38:20.444Z,2.90
2018-12-13T20:40:48.796Z,2.90
2018-12-13T20:43:17.214Z,3.00
2018-12-13T20:45:46.377Z,2.90
2018-12-13T20:48:15.374Z,2.90
2018-12-13T20:50:43.780Z,2.90
2018-12-13T20:53:12.129Z,2.90
2018-12-13T20:55:40.535Z,2.80
2018-12-13T20:58:08.860Z,2.70
2018-12-13T21:00:37.232Z,2.80
2018-12-13T21:03:05.706Z,2.80
2018-12-13T21:05:34.233Z,2.80
2018-12-13T21:08:09.212Z,2.80
2018-12-13T21:10:38.966Z,2.70
2018-12-13T21:13:07.496Z,2.80
2018-12-13T21:15:36.104Z,2.80
2018-12-13T21:18:04.572Z,2.80
2018-12-13T21:20:32.969Z,2.80
2018-12-13T21:23:01.372Z,2.80
2018-12-13T21:25:29.778Z,2.80
2018-12-13T21:27:58.149Z,2.80
2018-12-13T21:30:26.545Z,2.80
2018-12-13T21:32:54.920Z,2.80
2018-12-13T21:35:23.425Z,2.80
2018-12-13T21:37:51.826Z,2.80
2018-12-13T21:40:20.276Z,2.80
2018-12-13T21:42:48.702Z,2.80
2018-12-13T21:45:17.140Z,2.70
2018-12-13T21:47:45.599Z,2.80
2018-12-13T21:50:14.001Z,2.80
2018-12-13T21:52:42.397Z,2.80
2018-12-13T21:55:10.884Z,2.80
2018-12-13T21:57:39.482Z,2.60
2018-12-13T22:00:10.014Z,2.60
2018-12-13T22:02:38.413Z,2.60
2018-12-13T22:05:07.153Z,2.60
2018-12-13T22:07:35.582Z,2.50
2018-12-13T22:10:05.563Z,2.50
2018-12-13T22:12:34.076Z,2.50
2018-12-13T22:15:02.899Z,2.60
2018-12-13T22:17:31.472Z,2.50
2018-12-13T22:19:59.831Z,2.60
2018-12-13T22:22:28.228Z,2.60
2018-12-13T22:24:57.093Z,2.50
2018-12-13T22:27:25.469Z,2.50
2018-12-13T22:29:53.852Z,2.50
2018-12-13T22:32:22.272Z,2.50
2018-12-13T22:34:50.635Z,2.60
2018-12-13T22:37:19.126Z,2.60
2018-12-13T22:39:47.501Z,2.50
2018-12-13T22:42:16.155Z,2.40
2018-12-13T22:44:44.509Z,2.40
2018-12-13T22:47:12.906Z,2.50
2018-12-13T22:49:41.424Z,2.40
2018-12-13T22:52:09.835Z,2.40
2018-12-13T22:54:38.193Z,2.50
2018-12-13T22:57:13.517Z,2.60
2018-12-13T22:59:41.883Z,2.60
2018-12-13T23:02:10.364Z,2.50
2018-12-13T23:04:38.781Z,2.60
2018-12-13T23:07:07.170Z,2.60
2018-12-13T23:09:35.533Z,2.50
2018-12-13T23:12:03.993Z,2.50
2018-12-13T23:14:32.517Z,2.50
2018-12-13T23:17:00.921Z,2.40
2018-12-13T23:19:29.300Z,2.40
2018-12-13T23:21:57.657Z,2.40
2018-12-13T23:24:26.012Z,2.40
2018-12-13T23:26:54.357Z,2.40
2018-12-13T23:29:22.737Z,2.40
2018-12-13T23:31:51.098Z,2.50
2018-12-13T23:34:19.445Z,2.50
2018-12-13T23:36:47.767Z,2.50
2018-12-13T23:39:16.144Z,2.50
2018-12-13T23:41:44.485Z,2.50
2018-12-13T23:44:12.861Z,2.60
2018-12-13T23:46:41.200Z,2.50
2018-12-13T23:49:09.572Z,2.50
2018-12-13T23:51:37.909Z,2.60
2018-12-13T23:54:06.290Z,2.60
2018-12-13T23:56:34.624Z,2.60
2018-12-13T23:59:02.998Z,2.60
